Time;durP1;ratioP1;P1;durP2;ratioP2;P2;SDS_P1;SDS_P2;PMS_P1;PMS_P2;Temp;Humidity;BMP_temperature;BMP_pressure;BME280_temperature;BME280_humidity;BME280_pressure;Samples;Min_cycle;Max_cycle;Signal;HPM_P1;HPM_P2
2024/01/17 00:00:05;;;;;;;13.63;5.85;;;;;;;;;;5042219;28;20064;-88
2024/01/17 00:02:31;;;;;;;8.32;4.50;;;;;;;;;;5048423;28;20032;-86
2024/01/17 00:04:57;;;;;;;7.43;4.13;;;;;;;;;;5033032;28;20037;-85
2024/01/17 00:07:24;;;;;;;14.40;4.72;;;;;;;;;;5022852;28;20057;-85
2024/01/17 00:09:51;;;;;;;6.55;3.97;;;;;;;;;;5040391;28;20397;-85
2024/01/17 00:12:17;;;;;;;9.48;4.05;;;;;;;;;;5030435;28;20053;-86
2024/01/17 00:14:43;;;;;;;8.35;5.00;;;;;;;;;;5026805;28;20069;-85
2024/01/17 00:17:09;;;;;;;13.10;5.20;;;;;;;;;;5032784;28;20127;-86
2024/01/17 00:19:35;;;;;;;10.85;4.10;;;;;;;;;;5058092;28;20051;-86
2024/01/17 00:22:02;;;;;;;6.00;3.60;;;;;;;;;;5050569;28;20142;-85
2024/01/17 00:24:29;;;;;;;7.32;4.28;;;;;;;;;;5023357;28;20036;-85
2024/01/17 00:26:55;;;;;;;9.77;3.97;;;;;;;;;;5011577;28;20056;-86
2024/01/17 00:29:21;;;;;;;7.15;3.70;;;;;;;;;;5053383;28;20037;-85
2024/01/17 00:31:47;;;;;;;8.25;4.28;;;;;;;;;;5030695;28;20071;-86
2024/01/17 00:34:13;;;;;;;9.43;5.30;;;;;;;;;;5050417;28;20055;-86
2024/01/17 00:36:39;;;;;;;6.60;3.55;;;;;;;;;;5056640;28;20476;-85
2024/01/17 00:39:05;;;;;;;8.90;4.18;;;;;;;;;;5056251;28;20044;-86
2024/01/17 00:41:31;;;;;;;8.80;3.92;;;;;;;;;;5036335;28;20037;-85
2024/01/17 00:43:57;;;;;;;11.60;4.35;;;;;;;;;;5036846;28;20488;-86
2024/01/17 00:46:23;;;;;;;7.43;3.50;;;;;;;;;;5035597;28;20041;-86
2024/01/17 00:48:50;;;;;;;12.18;3.92;;;;;;;;;;5045362;28;20044;-86
2024/01/17 00:51:22;;;;;;;7.68;3.40;;;;;;;;;;5049466;28;20432;-86
2024/01/17 00:53:48;;;;;;;5.63;3.08;;;;;;;;;;5045942;28;20047;-86
2024/01/17 00:56:15;;;;;;;6.32;3.63;;;;;;;;;;5036227;28;20170;-86
2024/01/17 00:58:41;;;;;;;8.27;3.38;;;;;;;;;;5039574;28;20078;-86
2024/01/17 01:01:07;;;;;;;7.10;2.90;;;;;;;;;;5037587;28;20045;-85
2024/01/17 01:03:33;;;;;;;7.05;3.40;;;;;;;;;;5023237;28;20064;-86
2024/01/17 01:05:59;;;;;;;5.45;3.22;;;;;;;;;;5032248;28;20036;-86
2024/01/17 01:08:25;;;;;;;6.20;3.03;;;;;;;;;;5055575;28;20040;-86
2024/01/17 01:10:51;;;;;;;4.90;3.00;;;;;;;;;;5035327;28;20109;-86
2024/01/17 01:13:17;;;;;;;7.38;3.60;;;;;;;;;;5037026;28;20040;-85
2024/01/17 01:15:43;;;;;;;6.40;3.17;;;;;;;;;;5061956;28;20060;-86
2024/01/17 01:18:09;;;;;;;9.77;3.08;;;;;;;;;;5061232;28;20048;-86
2024/01/17 01:20:35;;;;;;;7.07;2.85;;;;;;;;;;5060979;28;20519;-87
2024/01/17 01:23:01;;;;;;;7.03;3.10;;;;;;;;;;5057164;28;20032;-86
2024/01/17 01:25:28;;;;;;;4.78;2.80;;;;;;;;;;5036776;28;20159;-86
2024/01/17 01:27:54;;;;;;;8.77;3.85;;;;;;;;;;5038262;28;20053;-87
2024/01/17 01:30:21;;;;;;;6.43;2.88;;;;;;;;;;5039525;28;20041;-86
2024/01/17 01:32:47;;;;;;;6.45;3.05;;;;;;;;;;5058758;28;20100;-86
2024/01/17 01:35:13;;;;;;;5.07;2.78;;;;;;;;;;5054256;28;20129;-86
2024/01/17 01:37:39;;;;;;;6.75;3.90;;;;;;;;;;5029906;28;20038;-86
2024/01/17 01:40:07;;;;;;;7.18;3.25;;;;;;;;;;5034556;28;20065;-85
2024/01/17 01:42:34;;;;;;;6.53;3.65;;;;;;;;;;5056106;28;20037;-85
2024/01/17 01:45:00;;;;;;;6.20;3.47;;;;;;;;;;5017125;28;20404;-86
2024/01/17 01:47:27;;;;;;;4.32;2.92;;;;;;;;;;5035534;28;20114;-86
2024/01/17 01:49:53;;;;;;;10.13;3.92;;;;;;;;;;5043850;28;20036;-86
2024/01/17 01:52:20;;;;;;;12.80;4.20;;;;;;;;;;5024608;28;20691;-86
2024/01/17 01:54:47;;;;;;;7.93;3.58;;;;;;;;;;5023551;28;20048;-86
2024/01/17 01:57:13;;;;;;;6.80;2.85;;;;;;;;;;5034881;28;20044;-86
2024/01/17 01:59:39;;;;;;;7.57;3.58;;;;;;;;;;5053732;28;20037;-86
2024/01/17 02:02:06;;;;;;;7.75;3.80;;;;;;;;;;5026784;28;20076;-86
2024/01/17 02:04:35;;;;;;;5.50;3.35;;;;;;;;;;5056231;28;20400;-86
2024/01/17 02:07:02;;;;;;;5.80;2.90;;;;;;;;;;5047541;28;20091;-85
2024/01/17 02:09:30;;;;;;;7.78;4.38;;;;;;;;;;5029930;28;20060;-87
2024/01/17 02:11:57;;;;;;;10.50;3.85;;;;;;;;;;5026452;28;20044;-85
2024/01/17 02:14:24;;;;;;;7.25;4.72;;;;;;;;;;5049198;28;20065;-85
2024/01/17 02:16:51;;;;;;;7.88;4.50;;;;;;;;;;5032891;28;20094;-86
2024/01/17 02:19:18;;;;;;;7.20;4.20;;;;;;;;;;5035854;28;20048;-85
2024/01/17 02:21:45;;;;;;;8.40;5.28;;;;;;;;;;5048679;28;20041;-85
2024/01/17 02:24:15;;;;;;;7.50;4.60;;;;;;;;;;5041035;28;20084;-86
2024/01/17 02:26:41;;;;;;;13.48;5.07;;;;;;;;;;5049546;28;20041;-86
2024/01/17 02:29:07;;;;;;;12.75;5.30;;;;;;;;;;5049162;28;20036;-86
2024/01/17 02:31:33;;;;;;;12.23;4.95;;;;;;;;;;5029014;28;20041;-85
2024/01/17 02:33:59;;;;;;;11.80;5.82;;;;;;;;;;5046800;28;20032;-85
2024/01/17 02:36:25;;;;;;;7.30;4.85;;;;;;;;;;5033549;28;20042;-86
2024/01/17 02:38:51;;;;;;;11.10;5.35;;;;;;;;;;5042425;28;20033;-85
2024/01/17 02:41:17;;;;;;;9.65;5.60;;;;;;;;;;5032380;28;20040;-85
2024/01/17 02:43:43;;;;;;;10.90;5.15;;;;;;;;;;5051523;28;20040;-86
2024/01/17 02:46:09;;;;;;;9.93;6.30;;;;;;;;;;5049382;28;20071;-86
2024/01/17 02:48:35;;;;;;;11.75;6.28;;;;;;;;;;5037254;28;20032;-86
2024/01/17 02:51:01;;;;;;;11.38;6.40;;;;;;;;;;5018067;28;20043;-86
2024/01/17 02:53:28;;;;;;;7.78;6.10;;;;;;;;;;5028657;28;20032;-85
2024/01/17 02:55:54;;;;;;;9.63;6.38;;;;;;;;;;5032919;28;20040;-86
2024/01/17 02:58:20;;;;;;;10.73;6.13;;;;;;;;;;5028784;28;20036;-86
2024/01/17 03:00:46;;;;;;;15.32;7.20;;;;;;;;;;5035274;28;20073;-86
2024/01/17 03:03:12;;;;;;;8.73;5.35;;;;;;;;;;5046612;28;20053;-86
2024/01/17 03:05:38;;;;;;;13.65;6.75;;;;;;;;;;5032449;28;20513;-86
2024/01/17 03:08:05;;;;;;;9.77;5.05;;;;;;;;;;5035321;28;20036;-86
2024/01/17 03:10:31;;;;;;;11.32;5.13;;;;;;;;;;5061453;28;20218;-86
2024/01/17 03:12:57;;;;;;;13.88;7.50;;;;;;;;;;5029618;28;20041;-86
2024/01/17 03:15:23;;;;;;;11.23;6.53;;;;;;;;;;5027730;28;20113;-86
2024/01/17 03:17:50;;;;;;;10.82;6.80;;;;;;;;;;5028208;28;20079;-86
2024/01/17 03:20:17;;;;;;;12.50;7.63;;;;;;;;;;5045682;28;20040;-87
2024/01/17 03:22:44;;;;;;;10.52;6.28;;;;;;;;;;5042898;28;20041;-86
2024/01/17 03:25:10;;;;;;;9.55;6.43;;;;;;;;;;5028163;28;21075;-85
2024/01/17 03:27:36;;;;;;;12.13;5.60;;;;;;;;;;5047215;28;20560;-85
2024/01/17 03:30:04;;;;;;;12.20;6.38;;;;;;;;;;5049136;28;20071;-86
2024/01/17 03:32:30;;;;;;;10.60;6.88;;;;;;;;;;5015833;28;20119;-88
2024/01/17 03:34:57;;;;;;;8.32;5.53;;;;;;;;;;5025050;28;20090;-84
2024/01/17 03:37:24;;;;;;;9.18;6.80;;;;;;;;;;5028907;28;20110;-85
2024/01/17 03:39:50;;;;;;;11.70;6.90;;;;;;;;;;5024850;28;20033;-85
2024/01/17 03:42:16;;;;;;;8.50;5.80;;;;;;;;;;5030233;28;20175;-85
2024/01/17 03:44:45;;;;;;;12.70;6.95;;;;;;;;;;5046540;28;20045;-86
2024/01/17 03:47:12;;;;;;;8.82;5.88;;;;;;;;;;5029938;28;20431;-86
2024/01/17 03:49:38;;;;;;;12.60;7.97;;;;;;;;;;5022299;28;20072;-86
2024/01/17 03:52:07;;;;;;;13.27;7.75;;;;;;;;;;5048667;28;20041;-85
2024/01/17 03:54:35;;;;;;;13.60;7.22;;;;;;;;;;5031971;28;20040;-85
2024/01/17 03:57:01;;;;;;;12.18;7.82;;;;;;;;;;5050416;28;20041;-86
2024/01/17 03:59:27;;;;;;;11.55;7.25;;;;;;;;;;5041861;28;20043;-86
2024/01/17 04:01:53;;;;;;;13.88;7.78;;;;;;;;;;5038409;28;20047;-86
2024/01/17 04:04:19;;;;;;;10.02;7.70;;;;;;;;;;5018268;28;20389;-87
2024/01/17 04:06:45;;;;;;;13.52;8.20;;;;;;;;;;5063620;28;20049;-85
2024/01/17 04:09:12;;;;;;;13.70;8.48;;;;;;;;;;5033060;28;20044;-86
2024/01/17 04:11:41;;;;;;;13.02;6.82;;;;;;;;;;5035066;28;20043;-86
2024/01/17 04:14:07;;;;;;;15.13;7.18;;;;;;;;;;5066479;28;20060;-87
2024/01/17 04:16:36;;;;;;;15.90;9.32;;;;;;;;;;5047677;28;20119;-86
2024/01/17 04:19:02;;;;;;;11.93;7.65;;;;;;;;;;5045651;28;20042;-86
2024/01/17 04:21:28;;;;;;;13.10;7.07;;;;;;;;;;5030456;28;20044;-86
2024/01/17 04:23:55;;;;;;;14.45;8.35;;;;;;;;;;5061776;28;20033;-87
2024/01/17 04:26:25;;;;;;;15.18;8.85;;;;;;;;;;5056458;28;20048;-88
2024/01/17 04:28:52;;;;;;;9.55;6.68;;;;;;;;;;5029472;28;20036;-89
2024/01/17 04:31:25;;;;;;;13.95;8.63;;;;;;;;;;5046559;28;20456;-87
2024/01/17 04:33:51;;;;;;;13.70;8.93;;;;;;;;;;5056334;28;20086;-90
2024/01/17 04:36:17;;;;;;;19.08;9.45;;;;;;;;;;5052099;28;20029;-89
2024/01/17 04:38:44;;;;;;;10.00;6.80;;;;;;;;;;5055623;28;20447;-89
2024/01/17 04:41:13;;;;;;;15.55;9.63;;;;;;;;;;5033662;28;20033;-90
2024/01/17 04:43:44;;;;;;;14.52;8.25;;;;;;;;;;5063453;28;20036;-86
2024/01/17 04:46:12;;;;;;;15.93;9.20;;;;;;;;;;5037199;28;20463;-89
2024/01/17 04:48:39;;;;;;;16.85;9.73;;;;;;;;;;5032451;28;20427;-87
2024/01/17 04:51:05;;;;;;;11.35;8.35;;;;;;;;;;5018090;28;20045;-88
2024/01/17 04:53:32;;;;;;;13.60;8.50;;;;;;;;;;5042100;28;20088;-90
2024/01/17 04:55:59;;;;;;;11.40;7.78;;;;;;;;;;5049071;28;20091;-90
2024/01/17 04:58:26;;;;;;;15.10;8.57;;;;;;;;;;5037585;28;20126;-91
2024/01/17 05:00:53;;;;;;;16.85;8.75;;;;;;;;;;5021657;28;20139;-87
2024/01/17 05:03:19;;;;;;;17.98;9.68;;;;;;;;;;5014119;28;20040;-87
2024/01/17 05:05:45;;;;;;;14.35;10.02;;;;;;;;;;5036122;28;20045;-88
2024/01/17 05:08:15;;;;;;;14.52;8.82;;;;;;;;;;5014818;28;20122;-88
2024/01/17 05:10:45;;;;;;;14.15;8.63;;;;;;;;;;5062170;28;20457;-88
2024/01/17 05:13:12;;;;;;;15.68;10.57;;;;;;;;;;5030825;28;20021;-88
2024/01/17 05:15:38;;;;;;;12.10;8.27;;;;;;;;;;5029682;28;20555;-82
2024/01/17 05:18:05;;;;;;;16.40;9.00;;;;;;;;;;5028995;28;20045;-80
2024/01/17 05:20:31;;;;;;;11.63;7.82;;;;;;;;;;5030844;28;20041;-81
2024/01/17 05:22:57;;;;;;;16.67;8.80;;;;;;;;;;5042143;28;20052;-81
2024/01/17 05:25:23;;;;;;;12.73;8.90;;;;;;;;;;5009399;28;20037;-82
2024/01/17 05:27:52;;;;;;;16.50;10.25;;;;;;;;;;5011977;28;20041;-81
2024/01/17 05:30:23;;;;;;;10.85;8.02;;;;;;;;;;5043647;28;20036;-82
2024/01/17 05:32:50;;;;;;;14.68;9.77;;;;;;;;;;5030004;28;21384;-81
2024/01/17 05:35:16;;;;;;;17.63;10.65;;;;;;;;;;5042880;28;20048;-81
2024/01/17 05:37:42;;;;;;;13.48;8.23;;;;;;;;;;5029326;28;20040;-87
2024/01/17 05:40:09;;;;;;;13.98;9.63;;;;;;;;;;5033098;28;20139;-85
2024/01/17 05:42:36;;;;;;;15.35;9.02;;;;;;;;;;5032392;28;20051;-85
2024/01/17 05:45:03;;;;;;;16.73;10.23;;;;;;;;;;5029620;28;20485;-86
2024/01/17 05:47:29;;;;;;;22.25;11.43;;;;;;;;;;5029977;28;20033;-85
2024/01/17 05:49:56;;;;;;;19.13;10.43;;;;;;;;;;5048024;28;20115;-85
2024/01/17 05:52:22;;;;;;;17.80;10.60;;;;;;;;;;5049867;28;20055;-85
2024/01/17 05:54:48;;;;;;;12.95;8.57;;;;;;;;;;5019670;28;20041;-86
2024/01/17 05:57:15;;;;;;;13.77;8.88;;;;;;;;;;5029756;28;20067;-84
2024/01/17 05:59:41;;;;;;;20.88;11.75;;;;;;;;;;5044960;28;20041;-85
2024/01/17 06:02:07;;;;;;;16.33;10.73;;;;;;;;;;5028318;28;20572;-87
2024/01/17 06:04:33;;;;;;;15.20;10.27;;;;;;;;;;5047238;28;20501;-85
2024/01/17 06:07:00;;;;;;;20.20;11.82;;;;;;;;;;5032420;28;20377;-85
2024/01/17 06:09:26;;;;;;;16.08;10.43;;;;;;;;;;5034006;28;20500;-85
2024/01/17 06:11:53;;;;;;;15.75;9.93;;;;;;;;;;5029155;28;20037;-84
2024/01/17 06:14:20;;;;;;;16.00;10.50;;;;;;;;;;5043873;28;20052;-85
2024/01/17 06:16:49;;;;;;;15.43;9.00;;;;;;;;;;5049523;28;20049;-86
2024/01/17 06:19:16;;;;;;;16.30;9.18;;;;;;;;;;5043360;28;20039;-85
2024/01/17 06:21:42;;;;;;;15.23;10.85;;;;;;;;;;5034859;28;20050;-86
2024/01/17 06:24:09;;;;;;;15.30;10.13;;;;;;;;;;5031000;28;20067;-86
2024/01/17 06:26:35;;;;;;;13.05;8.90;;;;;;;;;;5045879;28;20097;-85
2024/01/17 06:29:01;;;;;;;15.80;11.07;;;;;;;;;;5049123;28;20042;-86
2024/01/17 06:31:27;;;;;;;10.75;8.13;;;;;;;;;;5045703;28;20115;-86
2024/01/17 06:33:53;;;;;;;14.98;8.57;;;;;;;;;;5029105;28;20115;-85
2024/01/17 06:36:19;;;;;;;18.10;9.93;;;;;;;;;;5042617;28;20464;-86
2024/01/17 06:38:45;;;;;;;19.75;8.98;;;;;;;;;;5047842;28;20507;-86
2024/01/17 06:41:15;;;;;;;14.60;10.68;;;;;;;;;;5046819;28;20029;-85
2024/01/17 06:43:41;;;;;;;15.02;9.77;;;;;;;;;;5015972;28;20692;-84
2024/01/17 06:46:07;;;;;;;16.40;10.73;;;;;;;;;;5029827;28;20100;-84
2024/01/17 06:48:33;;;;;;;16.02;9.95;;;;;;;;;;5057502;28;20128;-85
2024/01/17 06:50:59;;;;;;;15.45;10.20;;;;;;;;;;5011757;28;20043;-85
2024/01/17 06:53:25;;;;;;;16.98;11.57;;;;;;;;;;5023852;28;20068;-85
2024/01/17 06:55:51;;;;;;;16.92;10.18;;;;;;;;;;5042268;28;20106;-84
2024/01/17 06:58:18;;;;;;;17.40;9.63;;;;;;;;;;5029686;28;20033;-85
2024/01/17 07:00:45;;;;;;;18.23;9.90;;;;;;;;;;5025465;28;20125;-85
2024/01/17 07:03:11;;;;;;;15.55;10.55;;;;;;;;;;5039447;28;20030;-85
2024/01/17 07:05:37;;;;;;;13.00;9.80;;;;;;;;;;5046381;28;20040;-85
2024/01/17 07:08:03;;;;;;;15.50;9.48;;;;;;;;;;5028637;28;20561;-85
2024/01/17 07:10:30;;;;;;;18.13;10.32;;;;;;;;;;5048800;28;20099;-85
2024/01/17 07:12:56;;;;;;;13.23;8.00;;;;;;;;;;5015431;28;20064;-85
2024/01/17 07:15:22;;;;;;;13.45;9.07;;;;;;;;;;5039694;28;20065;-85
2024/01/17 07:17:48;;;;;;;11.00;7.40;;;;;;;;;;5026349;28;20373;-83
2024/01/17 07:20:15;;;;;;;13.02;9.23;;;;;;;;;;5022870;28;20067;-86
2024/01/17 07:22:47;;;;;;;14.82;9.48;;;;;;;;;;5042803;28;20040;-86
2024/01/17 07:25:13;;;;;;;16.88;8.85;;;;;;;;;;5046823;28;20052;-86
2024/01/17 07:27:44;;;;;;;15.68;10.18;;;;;;;;;;5048403;28;20041;-83
2024/01/17 07:30:11;;;;;;;13.95;7.85;;;;;;;;;;5030331;28;20041;-85
2024/01/17 07:32:38;;;;;;;11.30;7.07;;;;;;;;;;5016798;28;20036;-84
2024/01/17 07:35:04;;;;;;;17.58;8.38;;;;;;;;;;5032606;28;20041;-85
2024/01/17 07:37:33;;;;;;;17.63;9.52;;;;;;;;;;5032682;28;20064;-84
2024/01/17 07:39:59;;;;;;;17.17;10.65;;;;;;;;;;5038690;28;20431;-85
2024/01/17 07:42:26;;;;;;;12.35;9.55;;;;;;;;;;5036418;28;20037;-85
2024/01/17 07:44:52;;;;;;;15.77;9.60;;;;;;;;;;5037401;28;20044;-85
2024/01/17 07:47:18;;;;;;;10.70;8.15;;;;;;;;;;5020729;28;20165;-84
2024/01/17 07:49:45;;;;;;;18.13;9.38;;;;;;;;;;5054349;28;20041;-85
2024/01/17 07:52:11;;;;;;;12.15;7.85;;;;;;;;;;5053568;28;20550;-87
2024/01/17 07:54:38;;;;;;;17.13;10.25;;;;;;;;;;5019382;28;20132;-85
2024/01/17 07:57:04;;;;;;;11.63;6.72;;;;;;;;;;5037211;28;20041;-87
2024/01/17 07:59:31;;;;;;;15.77;8.10;;;;;;;;;;5053196;28;20504;-87
2024/01/17 08:01:57;;;;;;;13.70;7.53;;;;;;;;;;5033875;28;20049;-87
2024/01/17 08:04:23;;;;;;;16.13;9.15;;;;;;;;;;5067081;28;20047;-85
2024/01/17 08:06:49;;;;;;;14.50;8.30;;;;;;;;;;5053021;28;20576;-86
2024/01/17 08:09:22;;;;;;;15.55;10.07;;;;;;;;;;5053839;28;20047;-86
2024/01/17 08:11:48;;;;;;;14.15;8.32;;;;;;;;;;5022689;28;20040;-85
2024/01/17 08:14:15;;;;;;;16.30;8.52;;;;;;;;;;5034320;28;20068;-86
2024/01/17 08:16:41;;;;;;;11.40;7.75;;;;;;;;;;5036627;28;20057;-86
2024/01/17 08:19:07;;;;;;;14.32;7.78;;;;;;;;;;5012751;28;20041;-87
2024/01/17 08:21:33;;;;;;;12.70;7.05;;;;;;;;;;5017308;28;20037;-86
2024/01/17 08:23:59;;;;;;;14.95;9.18;;;;;;;;;;5053715;28;20588;-86
2024/01/17 08:26:25;;;;;;;15.30;9.63;;;;;;;;;;5052555;28;20052;-87
2024/01/17 08:28:51;;;;;;;13.55;7.50;;;;;;;;;;5055519;28;20090;-86
2024/01/17 08:31:18;;;;;;;12.30;8.20;;;;;;;;;;5054500;28;20037;-86
2024/01/17 08:33:44;;;;;;;13.25;8.40;;;;;;;;;;5034138;28;20123;-86
2024/01/17 08:36:10;;;;;;;14.60;8.85;;;;;;;;;;5017802;28;20040;-85
2024/01/17 08:38:36;;;;;;;12.95;8.50;;;;;;;;;;5040425;28;20037;-86
2024/01/17 08:41:02;;;;;;;13.50;8.95;;;;;;;;;;5034547;28;20036;-87
2024/01/17 08:43:28;;;;;;;13.10;9.07;;;;;;;;;;5044445;28;20041;-86
2024/01/17 08:45:55;;;;;;;16.05;8.05;;;;;;;;;;5059726;28;20040;-82
2024/01/17 08:48:21;;;;;;;14.15;8.82;;;;;;;;;;5037233;28;20041;-86
2024/01/17 08:50:47;;;;;;;15.00;8.68;;;;;;;;;;5027192;28;20538;-85
2024/01/17 08:53:14;;;;;;;13.45;7.38;;;;;;;;;;5030913;28;20037;-86
2024/01/17 08:55:41;;;;;;;14.80;9.07;;;;;;;;;;5018027;28;20030;-88
2024/01/17 08:58:07;;;;;;;12.02;7.10;;;;;;;;;;5019497;28;20041;-86
2024/01/17 09:00:33;;;;;;;18.20;9.40;;;;;;;;;;5046754;28;20033;-88
2024/01/17 09:03:00;;;;;;;12.77;9.07;;;;;;;;;;5055605;28;20029;-86
2024/01/17 09:05:29;;;;;;;13.27;9.43;;;;;;;;;;5026111;28;20484;-86
2024/01/17 09:07:56;;;;;;;15.40;9.43;;;;;;;;;;5049687;28;20538;-85
2024/01/17 09:10:23;;;;;;;16.13;8.38;;;;;;;;;;5018384;28;20092;-86
2024/01/17 09:12:50;;;;;;;15.43;9.48;;;;;;;;;;5050358;28;20049;-85
2024/01/17 09:15:16;;;;;;;11.48;7.00;;;;;;;;;;5051298;28;20565;-86
2024/01/17 09:17:42;;;;;;;14.70;8.95;;;;;;;;;;5035864;28;20037;-86
2024/01/17 09:20:09;;;;;;;12.23;7.43;;;;;;;;;;5035549;28;20033;-87
2024/01/17 09:22:35;;;;;;;16.67;9.00;;;;;;;;;;5047482;28;20044;-84
2024/01/17 09:25:01;;;;;;;12.00;7.68;;;;;;;;;;5041914;28;20044;-85
2024/01/17 09:27:28;;;;;;;12.38;8.38;;;;;;;;;;5032503;28;20535;-86
2024/01/17 09:29:54;;;;;;;9.65;6.70;;;;;;;;;;5020374;28;20072;-86
2024/01/17 09:32:20;;;;;;;15.02;7.75;;;;;;;;;;5019629;28;20103;-85
2024/01/17 09:34:47;;;;;;;14.48;8.63;;;;;;;;;;5051001;28;20044;-86
2024/01/17 09:37:17;;;;;;;10.50;7.90;;;;;;;;;;5034400;28;20072;-85
2024/01/17 09:39:43;;;;;;;18.27;8.70;;;;;;;;;;5026753;28;20040;-84
2024/01/17 09:42:10;;;;;;;12.45;7.38;;;;;;;;;;5015580;28;20048;-83
2024/01/17 09:44:36;;;;;;;12.35;7.30;;;;;;;;;;5057469;28;20266;-83
2024/01/17 09:47:04;;;;;;;16.77;8.43;;;;;;;;;;5018745;28;20459;-85
2024/01/17 09:49:31;;;;;;;12.40;8.68;;;;;;;;;;5035291;28;20480;-84
2024/01/17 09:51:58;;;;;;;14.05;7.40;;;;;;;;;;5029252;28;20045;-82
2024/01/17 09:54:25;;;;;;;14.43;8.52;;;;;;;;;;5046937;28;20051;-86
2024/01/17 09:56:52;;;;;;;12.77;6.18;;;;;;;;;;5046686;28;20063;-85
2024/01/17 09:59:23;;;;;;;17.80;7.43;;;;;;;;;;5035668;28;20068;-86
2024/01/17 10:01:49;;;;;;;12.27;7.07;;;;;;;;;;5026553;28;20041;-82
2024/01/17 10:04:15;;;;;;;13.38;8.35;;;;;;;;;;5027226;28;20094;-85
2024/01/17 10:06:43;;;;;;;12.93;7.95;;;;;;;;;;5050272;28;20041;-84
2024/01/17 10:09:10;;;;;;;11.15;7.78;;;;;;;;;;5047420;28;20029;-85
2024/01/17 10:11:36;;;;;;;10.02;7.75;;;;;;;;;;5038341;28;20041;-85
2024/01/17 10:14:03;;;;;;;11.63;8.07;;;;;;;;;;5045912;28;20043;-85
2024/01/17 10:16:31;;;;;;;7.38;5.88;;;;;;;;;;5050942;28;20061;-86
2024/01/17 10:18:58;;;;;;;11.88;6.60;;;;;;;;;;5026850;28;20042;-79
2024/01/17 10:21:24;;;;;;;13.40;7.65;;;;;;;;;;5041176;28;20044;-81
2024/01/17 10:23:50;;;;;;;18.92;8.10;;;;;;;;;;5030808;28;20606;-80
2024/01/17 10:26:16;;;;;;;10.57;7.63;;;;;;;;;;5013923;28;20106;-81
2024/01/17 10:28:45;;;;;;;17.92;8.65;;;;;;;;;;5015598;28;20124;-82
2024/01/17 10:31:11;;;;;;;14.70;8.95;;;;;;;;;;5014194;28;20048;-81
2024/01/17 10:33:39;;;;;;;13.07;7.30;;;;;;;;;;5031216;28;20040;-81
2024/01/17 10:36:08;;;;;;;11.38;8.05;;;;;;;;;;5048631;28;20049;-80
2024/01/17 10:38:34;;;;;;;13.52;8.00;;;;;;;;;;5027344;28;20485;-80
2024/01/17 10:41:07;;;;;;;13.82;7.75;;;;;;;;;;5038363;28;20039;-79
2024/01/17 10:43:35;;;;;;;12.25;7.60;;;;;;;;;;5031842;28;20500;-81
2024/01/17 10:46:03;;;;;;;10.50;6.82;;;;;;;;;;5049448;28;20067;-80
2024/01/17 10:48:30;;;;;;;14.15;8.35;;;;;;;;;;5052522;28;20047;-80
2024/01/17 10:51:02;;;;;;;12.18;7.72;;;;;;;;;;5045572;28;20040;-79
2024/01/17 10:53:31;;;;;;;14.88;8.20;;;;;;;;;;5047955;28;20070;-80
2024/01/17 10:56:01;;;;;;;11.90;7.20;;;;;;;;;;5043809;28;20056;-80
2024/01/17 10:58:28;;;;;;;10.77;7.40;;;;;;;;;;5044133;28;20045;-79
2024/01/17 11:00:55;;;;;;;8.80;5.88;;;;;;;;;;5028394;28;20084;-80
2024/01/17 11:03:23;;;;;;;12.68;7.07;;;;;;;;;;5025909;28;20120;-79
2024/01/17 11:05:50;;;;;;;18.98;8.07;;;;;;;;;;5027740;28;20048;-79
2024/01/17 11:08:18;;;;;;;15.82;7.43;;;;;;;;;;5044108;28;20131;-80
2024/01/17 11:10:45;;;;;;;14.55;8.73;;;;;;;;;;5043922;28;20466;-81
2024/01/17 11:13:16;;;;;;;11.35;7.07;;;;;;;;;;5029747;28;20558;-80
2024/01/17 11:15:44;;;;;;;10.77;7.90;;;;;;;;;;5046876;28;20045;-81
2024/01/17 11:18:29;;;;;;;13.10;7.57;;;;;;;;;;5116114;27;20417;-80
2024/01/17 11:20:56;;;;;;;14.80;7.85;;;;;;;;;;5102967;28;20048;-82
2024/01/17 11:23:35;;;;;;;14.60;7.95;;;;;;;;;;5102937;27;20038;-81
2024/01/17 11:26:08;;;;;;;15.25;8.20;;;;;;;;;;5119702;27;20480;-81
2024/01/17 11:28:57;;;;;;;14.98;7.45;;;;;;;;;;5064660;28;20036;-83
2024/01/17 11:31:23;;;;;;;12.70;6.30;;;;;;;;;;5083507;28;20496;-82
2024/01/17 11:33:49;;;;;;;13.57;8.02;;;;;;;;;;5069097;28;20036;-84
2024/01/17 11:36:34;;;;;;;12.77;8.18;;;;;;;;;;5069464;28;20546;-84
2024/01/17 11:39:01;;;;;;;13.75;8.48;;;;;;;;;;5068526;28;20045;-86
2024/01/17 11:41:33;;;;;;;15.23;8.07;;;;;;;;;;5070102;28;20089;-85
2024/01/17 11:43:59;;;;;;;15.75;9.32;;;;;;;;;;5084472;28;20047;-84
2024/01/17 11:46:25;;;;;;;13.90;8.18;;;;;;;;;;5066932;28;20040;-85
2024/01/17 11:48:53;;;;;;;15.93;8.32;;;;;;;;;;5061155;28;20058;-86
2024/01/17 11:51:21;;;;;;;18.75;9.48;;;;;;;;;;5066769;28;20040;-85
2024/01/17 11:53:50;;;;;;;12.52;8.68;;;;;;;;;;5083581;28;20100;-86
2024/01/17 11:56:17;;;;;;;10.90;8.02;;;;;;;;;;5087052;28;20063;-84
2024/01/17 11:58:53;;;;;;;14.57;7.78;;;;;;;;;;5072894;28;20047;-83
2024/01/17 12:01:24;;;;;;;12.95;7.88;;;;;;;;;;5086184;28;20060;-85
2024/01/17 12:03:50;;;;;;;16.98;8.52;;;;;;;;;;5084706;28;20044;-86
2024/01/17 12:06:17;;;;;;;14.23;8.07;;;;;;;;;;5060083;28;20143;-84
2024/01/17 12:08:44;;;;;;;10.38;6.00;;;;;;;;;;5066613;28;20106;-85
2024/01/17 12:11:10;;;;;;;12.43;7.95;;;;;;;;;;5085670;28;20545;-85
2024/01/17 12:13:37;;;;;;;11.55;7.68;;;;;;;;;;5066345;28;20502;-84
2024/01/17 12:16:05;;;;;;;20.30;6.53;;;;;;;;;;5066800;28;20040;-86
2024/01/17 12:18:31;;;;;;;13.90;7.93;;;;;;;;;;5074905;28;20551;-84
2024/01/17 12:21:04;;;;;;;15.45;8.35;;;;;;;;;;5043859;28;20067;-84
2024/01/17 12:23:32;;;;;;;12.93;7.50;;;;;;;;;;5060620;28;20036;-84
2024/01/17 12:25:59;;;;;;;10.82;7.35;;;;;;;;;;5066595;28;20040;-86
2024/01/17 12:28:27;;;;;;;11.60;7.47;;;;;;;;;;5075314;28;20037;-85
2024/01/17 12:30:55;;;;;;;15.02;7.72;;;;;;;;;;5054481;28;20435;-85
2024/01/17 12:33:22;;;;;;;12.98;7.25;;;;;;;;;;5065465;28;20052;-85
2024/01/17 12:35:48;;;;;;;15.57;8.82;;;;;;;;;;5055947;28;20041;-86
2024/01/17 12:38:14;;;;;;;9.45;6.50;;;;;;;;;;5054172;28;20037;-81
2024/01/17 12:40:40;;;;;;;16.17;7.75;;;;;;;;;;5052979;28;20098;-81
2024/01/17 12:43:06;;;;;;;13.20;8.10;;;;;;;;;;5070955;28;20028;-81
2024/01/17 12:45:34;;;;;;;11.25;7.78;;;;;;;;;;5033243;28;20040;-81
2024/01/17 12:48:00;;;;;;;12.30;8.10;;;;;;;;;;5071806;28;20496;-82
2024/01/17 12:50:27;;;;;;;12.27;8.95;;;;;;;;;;5056183;28;20059;-81
2024/01/17 12:52:53;;;;;;;10.88;7.90;;;;;;;;;;5056389;28;20441;-80
2024/01/17 12:55:22;;;;;;;13.77;8.15;;;;;;;;;;5059975;28;20059;-81
2024/01/17 12:57:49;;;;;;;11.85;8.10;;;;;;;;;;5046854;28;20093;-81
2024/01/17 13:00:15;;;;;;;19.35;8.75;;;;;;;;;;5052177;28;20040;-78
2024/01/17 13:02:41;;;;;;;13.05;9.05;;;;;;;;;;5051475;28;20058;-80
2024/01/17 13:05:08;;;;;;;12.02;8.13;;;;;;;;;;5046789;28;20047;-80
2024/01/17 13:07:34;;;;;;;12.80;7.78;;;;;;;;;;5053018;28;20310;-81
2024/01/17 13:10:14;;;;;;;16.63;8.55;;;;;;;;;;5052524;28;20036;-82
2024/01/17 13:12:40;;;;;;;11.00;8.57;;;;;;;;;;5067785;28;20040;-79
2024/01/17 13:15:10;;;;;;;13.07;8.27;;;;;;;;;;5054731;28;20037;-80
2024/01/17 13:17:36;;;;;;;12.43;8.57;;;;;;;;;;5070069;28;20063;-81
2024/01/17 13:20:15;;;;;;;17.20;10.02;;;;;;;;;;5066355;28;20036;-82
2024/01/17 13:22:41;;;;;;;13.57;8.07;;;;;;;;;;5052388;28;20043;-82
2024/01/17 13:25:07;;;;;;;12.63;8.85;;;;;;;;;;5037836;28;20036;-81
2024/01/17 13:27:33;;;;;;;12.57;8.70;;;;;;;;;;5065670;28;20411;-81
2024/01/17 13:30:03;;;;;;;12.90;8.68;;;;;;;;;;5052891;28;20047;-81
2024/01/17 13:32:30;;;;;;;17.00;9.80;;;;;;;;;;5064686;28;20058;-82
2024/01/17 13:34:56;;;;;;;15.10;8.90;;;;;;;;;;5049672;28;20051;-81
2024/01/17 13:37:22;;;;;;;11.38;8.23;;;;;;;;;;5052071;28;20045;-81
2024/01/17 13:39:48;;;;;;;17.58;8.80;;;;;;;;;;5049029;28;20032;-80
2024/01/17 13:42:15;;;;;;;11.90;8.50;;;;;;;;;;5053072;28;20040;-80
2024/01/17 13:44:41;;;;;;;10.82;7.88;;;;;;;;;;5054125;28;20120;-81
2024/01/17 13:47:07;;;;;;;13.10;7.88;;;;;;;;;;5049296;28;20037;-81
2024/01/17 13:49:36;;;;;;;14.43;8.48;;;;;;;;;;5055377;28;20041;-87
2024/01/17 13:52:03;;;;;;;13.80;7.93;;;;;;;;;;5066197;28;20074;-85
2024/01/17 13:54:30;;;;;;;16.02;9.10;;;;;;;;;;5070677;28;20037;-86
2024/01/17 13:56:56;;;;;;;13.32;8.00;;;;;;;;;;5065437;28;20048;-87
2024/01/17 13:59:23;;;;;;;15.02;8.57;;;;;;;;;;5069840;28;20095;-86
2024/01/17 14:01:49;;;;;;;11.45;7.15;;;;;;;;;;5074964;28;20075;-85
2024/01/17 14:04:15;;;;;;;15.02;8.50;;;;;;;;;;5055085;28;20036;-86
2024/01/17 14:06:41;;;;;;;13.52;7.85;;;;;;;;;;5070450;28;20040;-86
2024/01/17 14:09:10;;;;;;;11.45;8.55;;;;;;;;;;5056846;28;20521;-85
2024/01/17 14:11:38;;;;;;;15.07;8.63;;;;;;;;;;5041218;28;20044;-86
2024/01/17 14:14:05;;;;;;;11.57;7.85;;;;;;;;;;5037825;28;20044;-86
2024/01/17 14:16:31;;;;;;;15.18;8.68;;;;;;;;;;5053393;28;20075;-86
2024/01/17 14:18:58;;;;;;;13.27;8.57;;;;;;;;;;5053308;28;20041;-85
2024/01/17 14:21:25;;;;;;;14.02;8.48;;;;;;;;;;5069969;28;20149;-87
2024/01/17 14:23:51;;;;;;;13.73;8.63;;;;;;;;;;5071418;28;20033;-84
2024/01/17 14:26:20;;;;;;;15.50;8.20;;;;;;;;;;5053788;28;20040;-86
2024/01/17 14:28:46;;;;;;;16.95;8.85;;;;;;;;;;5045559;28;20052;-84